Time;durP1;ratioP1;P1;durP2;ratioP2;P2;SDS_P1;SDS_P2;PMS_P1;PMS_P2;Temp;Humidity;BMP_temperature;BMP_pressure;BME280_temperature;BME280_humidity;BME280_pressure;Samples;Min_cycle;Max_cycle;Signal;HPM_P1;HPM_P2
2022/01/13 00:01:11;;;;;;;12.55;3.97;;;;;;;;;;5079700;28;20040;-69
2022/01/13 00:04:16;;;;;;;9.80;3.90;;;;;;;;;;5079858;28;20383;-69
2022/01/13 00:07:20;;;;;;;12.77;3.53;;;;;;;;;;5079277;28;20036;-68
2022/01/13 00:10:27;;;;;;;8.18;3.72;;;;;;;;;;5079387;28;20055;-69
2022/01/13 00:13:45;;;;;;;18.38;4.32;;;;;;;;;;5079737;28;20141;-68
2022/01/13 00:20:58;;;;;;;12.30;3.90;;;;;;;;;;5091743;28;20047;-69
2022/01/13 00:26:42;;;;;;;14.85;4.25;;;;;;;;;;5091906;28;20032;-69
2022/01/13 00:29:46;;;;;;;6.60;3.58;;;;;;;;;;5091459;28;20050;-69
2022/01/13 00:32:50;;;;;;;14.07;3.72;;;;;;;;;;5091844;28;20032;-69
2022/01/13 00:35:57;;;;;;;9.18;3.55;;;;;;;;;;5079266;28;20404;-69
2022/01/13 00:39:01;;;;;;;10.95;3.38;;;;;;;;;;5078943;28;20044;-69
2022/01/13 00:42:06;;;;;;;8.57;3.03;;;;;;;;;;5079212;28;20029;-69
2022/01/13 00:45:14;;;;;;;13.77;3.55;;;;;;;;;;5079050;28;20040;-69
2022/01/13 00:48:18;;;;;;;7.70;3.13;;;;;;;;;;5091613;28;20036;-69
2022/01/13 00:51:24;;;;;;;12.88;3.83;;;;;;;;;;5079149;28;20503;-69
2022/01/13 00:54:28;;;;;;;8.32;3.58;;;;;;;;;;5078921;28;20427;-69
2022/01/13 00:57:33;;;;;;;11.38;3.55;;;;;;;;;;5078769;28;20032;-68
2022/01/13 01:00:37;;;;;;;15.15;3.55;;;;;;;;;;5066809;28;20043;-69
2022/01/13 01:03:41;;;;;;;11.57;3.47;;;;;;;;;;5091388;28;20035;-69
2022/01/13 01:06:46;;;;;;;10.43;3.53;;;;;;;;;;5091329;28;20521;-69
2022/01/13 01:09:51;;;;;;;6.20;3.15;;;;;;;;;;5091097;28;20044;-69
2022/01/13 01:12:55;;;;;;;7.45;3.47;;;;;;;;;;5078645;28;20350;-69
2022/01/13 01:16:01;;;;;;;8.05;3.10;;;;;;;;;;5090918;28;20040;-69
2022/01/13 01:19:08;;;;;;;7.47;3.20;;;;;;;;;;5091256;28;20048;-69
2022/01/13 01:25:36;;;;;;;13.38;3.17;;;;;;;;;;5091098;28;20039;-69
2022/01/13 01:28:46;;;;;;;7.25;2.97;;;;;;;;;;5090998;28;20412;-69
2022/01/13 01:31:53;;;;;;;7.95;3.08;;;;;;;;;;5078706;28;20044;-69
2022/01/13 01:35:01;;;;;;;10.77;2.67;;;;;;;;;;5091148;28;20040;-69
2022/01/13 01:38:06;;;;;;;5.88;2.60;;;;;;;;;;5078438;28;20044;-69
2022/01/13 01:41:10;;;;;;;12.00;3.05;;;;;;;;;;5093242;28;20044;-69
2022/01/13 01:44:20;;;;;;;7.00;3.05;;;;;;;;;;5095074;28;20039;-69
2022/01/13 01:47:25;;;;;;;10.65;3.03;;;;;;;;;;5082300;28;20036;-68
2022/01/13 01:50:35;;;;;;;9.00;3.40;;;;;;;;;;5082147;28;20403;-69
2022/01/13 01:53:40;;;;;;;9.00;2.90;;;;;;;;;;5082242;28;20032;-68
2022/01/13 01:56:45;;;;;;;10.23;3.30;;;;;;;;;;5070783;28;20036;-69
2022/01/13 01:59:50;;;;;;;10.98;3.10;;;;;;;;;;5094702;28;20043;-69
2022/01/13 02:02:55;;;;;;;8.68;3.35;;;;;;;;;;5070725;28;20062;-68
2022/01/13 02:06:00;;;;;;;6.20;2.70;;;;;;;;;;5082007;28;20476;-69
2022/01/13 02:09:06;;;;;;;8.48;3.10;;;;;;;;;;5094548;28;20036;-69
2022/01/13 02:12:16;;;;;;;12.55;4.38;;;;;;;;;;5094534;28;20044;-69
2022/01/13 02:15:32;;;;;;;9.70;2.70;;;;;;;;;;5094147;28;20048;-68
2022/01/13 02:18:37;;;;;;;11.02;3.20;;;;;;;;;;5070444;28;20040;-69
2022/01/13 02:21:42;;;;;;;9.00;3.38;;;;;;;;;;5094455;28;20043;-69
2022/01/13 02:24:46;;;;;;;9.63;3.53;;;;;;;;;;5081672;28;20626;-69
2022/01/13 02:27:50;;;;;;;8.98;2.55;;;;;;;;;;5094112;28;20036;-69
2022/01/13 02:30:54;;;;;;;10.35;3.15;;;;;;;;;;5094044;28;20622;-69
2022/01/13 02:33:58;;;;;;;10.55;3.13;;;;;;;;;;5094070;28;20036;-69
2022/01/13 02:37:03;;;;;;;11.80;3.25;;;;;;;;;;5081306;28;20522;-69
2022/01/13 02:40:08;;;;;;;8.57;2.78;;;;;;;;;;5094139;28;20058;-68
2022/01/13 02:43:12;;;;;;;9.98;2.83;;;;;;;;;;5094008;28;20044;-68
2022/01/13 02:46:31;;;;;;;12.45;3.30;;;;;;;;;;5093994;28;20040;-68
2022/01/13 02:49:36;;;;;;;6.03;2.55;;;;;;;;;;5093583;28;20032;-68
2022/01/13 02:52:41;;;;;;;8.57;2.67;;;;;;;;;;5080013;28;20044;-68
2022/01/13 02:55:45;;;;;;;11.40;2.67;;;;;;;;;;5093627;28;20044;-69
2022/01/13 02:58:49;;;;;;;7.07;2.70;;;;;;;;;;5080961;28;20043;-68
2022/01/13 03:01:53;;;;;;;6.45;2.53;;;;;;;;;;5093588;28;20040;-68
2022/01/13 03:04:58;;;;;;;9.82;2.63;;;;;;;;;;5080421;28;20028;-69
2022/01/13 03:08:02;;;;;;;22.63;3.20;;;;;;;;;;5093460;28;20044;-68
2022/01/13 03:11:07;;;;;;;7.43;2.90;;;;;;;;;;5092892;28;20040;-68
2022/01/13 03:14:12;;;;;;;13.05;4.00;;;;;;;;;;5092991;28;20028;-68
2022/01/13 03:17:16;;;;;;;7.30;2.60;;;;;;;;;;5093032;28;20032;-69
2022/01/13 03:20:20;;;;;;;17.13;2.97;;;;;;;;;;5080738;28;20036;-68
2022/01/13 03:23:24;;;;;;;7.63;2.97;;;;;;;;;;5093131;28;20040;-69
2022/01/13 03:26:28;;;;;;;13.02;3.38;;;;;;;;;;5093147;28;20070;-69
2022/01/13 03:29:33;;;;;;;11.23;3.15;;;;;;;;;;5092777;28;20055;-68
2022/01/13 03:32:38;;;;;;;9.40;2.85;;;;;;;;;;5080354;28;20040;-69
2022/01/13 03:35:43;;;;;;;15.63;3.00;;;;;;;;;;5092824;28;20044;-68
2022/01/13 03:38:47;;;;;;;11.38;3.10;;;;;;;;;;5071619;28;20435;-69
2022/01/13 03:41:51;;;;;;;8.13;2.70;;;;;;;;;;5071669;28;20115;-69
2022/01/13 03:44:55;;;;;;;7.70;2.92;;;;;;;;;;5072361;28;20032;-69
2022/01/13 03:48:00;;;;;;;11.05;2.80;;;;;;;;;;5072375;28;20037;-68
2022/01/13 03:51:04;;;;;;;8.95;2.67;;;;;;;;;;5071798;28;20049;-68
2022/01/13 03:54:27;;;;;;;8.77;2.45;;;;;;;;;;5072215;28;20032;-68
2022/01/13 03:57:50;;;;;;;6.90;2.28;;;;;;;;;;5072205;28;20048;-68
2022/01/13 04:01:13;;;;;;;7.88;2.42;;;;;;;;;;5071786;28;20480;-68
2022/01/13 04:04:17;;;;;;;10.05;2.38;;;;;;;;;;5070794;28;20036;-68
2022/01/13 04:07:23;;;;;;;8.35;2.45;;;;;;;;;;5072665;28;20116;-69
2022/01/13 04:11:02;;;;;;;7.22;2.90;;;;;;;;;;5047859;28;20044;-68
2022/01/13 04:14:09;;;;;;;6.00;2.53;;;;;;;;;;5071856;28;20040;-69
2022/01/13 04:17:18;;;;;;;9.32;3.05;;;;;;;;;;5071775;28;20040;-68
2022/01/13 04:20:22;;;;;;;14.70;3.03;;;;;;;;;;5071618;28;20606;-69
2022/01/13 04:23:26;;;;;;;12.57;3.50;;;;;;;;;;5071613;28;20041;-69
2022/01/13 04:26:33;;;;;;;6.50;3.00;;;;;;;;;;5071468;28;20033;-68
2022/01/13 04:29:41;;;;;;;9.68;2.97;;;;;;;;;;5071218;28;20380;-68
2022/01/13 04:32:45;;;;;;;7.35;3.13;;;;;;;;;;5071660;28;20565;-69
2022/01/13 04:35:50;;;;;;;13.43;3.10;;;;;;;;;;5069957;28;20036;-69
2022/01/13 04:38:54;;;;;;;12.32;2.90;;;;;;;;;;5070119;28;20052;-69
2022/01/13 04:41:58;;;;;;;7.90;2.80;;;;;;;;;;5071297;28;20033;-68
2022/01/13 04:45:04;;;;;;;4.47;2.47;;;;;;;;;;5071088;28;20052;-69
2022/01/13 04:48:08;;;;;;;9.10;3.47;;;;;;;;;;5071280;28;20044;-69
2022/01/13 04:51:13;;;;;;;7.18;2.70;;;;;;;;;;5070962;28;20044;-69
2022/01/13 04:54:18;;;;;;;8.80;2.65;;;;;;;;;;5071190;28;20041;-68
2022/01/13 04:57:21;;;;;;;7.88;2.88;;;;;;;;;;5070233;28;20040;-68
2022/01/13 05:00:26;;;;;;;13.13;3.30;;;;;;;;;;5070345;28;20105;-68
2022/01/13 05:03:30;;;;;;;8.07;2.58;;;;;;;;;;5071098;28;20032;-68
2022/01/13 05:06:35;;;;;;;8.45;2.67;;;;;;;;;;5071159;28;20062;-68
2022/01/13 05:09:40;;;;;;;9.80;2.80;;;;;;;;;;5071105;28;20036;-69
2022/01/13 05:12:46;;;;;;;7.47;2.55;;;;;;;;;;5071006;28;20037;-69
2022/01/13 05:15:53;;;;;;;11.13;3.25;;;;;;;;;;5069930;28;20036;-69
2022/01/13 05:19:11;;;;;;;10.38;2.88;;;;;;;;;;5070813;28;20036;-69
2022/01/13 05:22:15;;;;;;;5.85;2.70;;;;;;;;;;5058295;28;20036;-69
2022/01/13 05:25:20;;;;;;;13.15;3.10;;;;;;;;;;5069832;28;20488;-69
2022/01/13 05:28:24;;;;;;;6.70;2.42;;;;;;;;;;5070588;28;20055;-69
2022/01/13 05:31:29;;;;;;;10.07;3.13;;;;;;;;;;5070650;28;20057;-69
2022/01/13 05:34:33;;;;;;;9.48;2.83;;;;;;;;;;5069982;28;20037;-69
2022/01/13 05:37:37;;;;;;;8.85;2.72;;;;;;;;;;5075456;28;20051;-69
2022/01/13 05:40:41;;;;;;;9.23;2.50;;;;;;;;;;5090818;28;20040;-68
2022/01/13 05:43:46;;;;;;;9.82;3.42;;;;;;;;;;5090941;28;20032;-69
2022/01/13 05:46:50;;;;;;;12.18;2.58;;;;;;;;;;5090535;28;20036;-68
2022/01/13 05:49:55;;;;;;;8.70;2.55;;;;;;;;;;5055235;28;20036;-68
2022/01/13 05:52:59;;;;;;;6.78;2.40;;;;;;;;;;5090670;28;20040;-68
2022/01/13 05:56:04;;;;;;;8.40;2.83;;;;;;;;;;5090591;28;20381;-68
2022/01/13 05:59:08;;;;;;;8.80;2.42;;;;;;;;;;5090498;28;20040;-68
2022/01/13 06:02:12;;;;;;;8.10;2.60;;;;;;;;;;5077880;28;20040;-68
2022/01/13 06:05:18;;;;;;;12.65;3.03;;;;;;;;;;5090690;28;20040;-69
2022/01/13 06:08:22;;;;;;;9.95;2.60;;;;;;;;;;5090705;28;20051;-69
2022/01/13 06:11:36;;;;;;;7.53;2.70;;;;;;;;;;5090404;28;20044;-69
2022/01/13 06:14:41;;;;;;;7.70;2.80;;;;;;;;;;5077883;28;20032;-68
2022/01/13 06:17:46;;;;;;;7.57;2.80;;;;;;;;;;5078026;28;20191;-68
2022/01/13 06:20:50;;;;;;;10.27;2.72;;;;;;;;;;5090618;28;20043;-68
2022/01/13 06:23:55;;;;;;;10.38;3.17;;;;;;;;;;5090424;28;20036;-68
2022/01/13 06:27:00;;;;;;;10.80;3.10;;;;;;;;;;5092019;28;20044;-68
2022/01/13 06:30:09;;;;;;;10.25;3.17;;;;;;;;;;5094029;28;20400;-69
2022/01/13 06:33:14;;;;;;;15.38;3.03;;;;;;;;;;5094094;28;20043;-68
2022/01/13 06:36:18;;;;;;;6.68;2.45;;;;;;;;;;5094154;28;20123;-68
2022/01/13 06:39:22;;;;;;;8.55;2.90;;;;;;;;;;5072504;28;20044;-68
2022/01/13 06:42:27;;;;;;;10.57;2.70;;;;;;;;;;5072566;28;20044;-68
2022/01/13 06:45:31;;;;;;;11.88;3.00;;;;;;;;;;5072610;28;20032;-68
2022/01/13 06:48:35;;;;;;;10.38;3.20;;;;;;;;;;5072675;28;20047;-67
2022/01/13 06:51:40;;;;;;;12.98;3.72;;;;;;;;;;5073047;28;20047;-68
2022/01/13 06:54:45;;;;;;;7.65;3.05;;;;;;;;;;5073278;28;20518;-68
2022/01/13 06:57:49;;;;;;;7.18;3.05;;;;;;;;;;5072946;28;20044;-67
2022/01/13 07:00:53;;;;;;;10.30;4.97;;;;;;;;;;5073377;28;20040;-68
2022/01/13 07:03:58;;;;;;;7.38;3.40;;;;;;;;;;5072886;28;20044;-68
2022/01/13 07:07:03;;;;;;;7.65;3.22;;;;;;;;;;5073080;28;20032;-68
2022/01/13 07:10:08;;;;;;;10.52;3.25;;;;;;;;;;5072868;28;20049;-68
2022/01/13 07:13:12;;;;;;;7.03;3.25;;;;;;;;;;5073035;28;20049;-68
2022/01/13 07:16:16;;;;;;;8.55;2.92;;;;;;;;;;5073029;28;20480;-68
2022/01/13 07:19:21;;;;;;;12.02;3.13;;;;;;;;;;5073170;28;20048;-68
2022/01/13 07:22:25;;;;;;;13.27;3.40;;;;;;;;;;5072347;28;20036;-66
2022/01/13 07:25:29;;;;;;;10.23;3.50;;;;;;;;;;5072970;28;20059;-67
2022/01/13 07:28:33;;;;;;;16.23;3.42;;;;;;;;;;5060434;28;20131;-67
2022/01/13 07:31:38;;;;;;;8.68;3.47;;;;;;;;;;5072362;28;20052;-67
2022/01/13 07:34:43;;;;;;;9.65;3.75;;;;;;;;;;5071026;28;20040;-68
2022/01/13 07:37:47;;;;;;;10.70;3.70;;;;;;;;;;5076954;28;20484;-67
2022/01/13 07:40:52;;;;;;;10.95;3.00;;;;;;;;;;5079828;28;20047;-66
2022/01/13 07:43:56;;;;;;;10.00;3.10;;;;;;;;;;5078265;28;20047;-67
2022/01/13 07:47:01;;;;;;;7.20;2.90;;;;;;;;;;5092514;28;20040;-67
2022/01/13 07:50:06;;;;;;;6.82;2.95;;;;;;;;;;5079871;28;20048;-67
2022/01/13 07:53:10;;;;;;;11.07;3.08;;;;;;;;;;5092043;28;20372;-67
2022/01/13 07:56:14;;;;;;;7.57;3.47;;;;;;;;;;5067973;28;20046;-66
2022/01/13 07:59:19;;;;;;;9.40;3.35;;;;;;;;;;5092537;28;20040;-66
2022/01/13 08:02:23;;;;;;;8.95;3.22;;;;;;;;;;5092408;28;20039;-67
2022/01/13 08:05:27;;;;;;;10.95;2.60;;;;;;;;;;5091882;28;20051;-68
2022/01/13 08:08:35;;;;;;;14.20;3.30;;;;;;;;;;5091472;28;20040;-67
2022/01/13 08:11:39;;;;;;;7.10;2.80;;;;;;;;;;5091145;28;20499;-68
2022/01/13 08:14:44;;;;;;;8.68;3.30;;;;;;;;;;5078988;28;20040;-68
2022/01/13 08:21:10;;;;;;;8.07;3.10;;;;;;;;;;5091936;28;20043;-67
2022/01/13 08:24:14;;;;;;;15.20;3.30;;;;;;;;;;5067327;28;20043;-68
2022/01/13 08:27:19;;;;;;;10.85;3.33;;;;;;;;;;5079196;28;20507;-68
2022/01/13 08:30:23;;;;;;;6.70;2.95;;;;;;;;;;5091595;28;20055;-67
2022/01/13 08:33:28;;;;;;;12.25;3.63;;;;;;;;;;5091259;28;20368;-67
2022/01/13 08:36:32;;;;;;;8.65;3.25;;;;;;;;;;5071219;28;20055;-68
2022/01/13 08:39:43;;;;;;;10.27;3.20;;;;;;;;;;5091733;28;20369;-67
2022/01/13 08:42:47;;;;;;;10.93;3.25;;;;;;;;;;5078628;28;20057;-67
2022/01/13 08:45:52;;;;;;;9.35;3.30;;;;;;;;;;5078671;28;20040;-67
2022/01/13 08:48:56;;;;;;;6.68;2.83;;;;;;;;;;5079036;28;20036;-67
2022/01/13 08:52:01;;;;;;;10.13;3.72;;;;;;;;;;5091104;28;20040;-68
2022/01/13 08:55:06;;;;;;;11.15;4.63;;;;;;;;;;5078508;28;20032;-67
2022/01/13 08:58:09;;;;;;;11.98;3.53;;;;;;;;;;5079119;28;20049;-67
2022/01/13 09:01:14;;;;;;;16.17;3.92;;;;;;;;;;5091428;28;20398;-68
2022/01/13 09:04:18;;;;;;;13.65;4.32;;;;;;;;;;5079070;28;20044;-71
2022/01/13 09:07:23;;;;;;;15.90;3.88;;;;;;;;;;5091406;28;20040;-71
2022/01/13 09:10:27;;;;;;;20.35;3.55;;;;;;;;;;5067081;28;20435;-72
2022/01/13 09:13:36;;;;;;;6.22;3.17;;;;;;;;;;5090969;28;20076;-70
2022/01/13 09:16:41;;;;;;;13.48;3.97;;;;;;;;;;5067092;28;20032;-68
2022/01/13 09:19:45;;;;;;;11.18;3.45;;;;;;;;;;5091222;28;20054;-67
2022/01/13 09:22:50;;;;;;;7.93;3.70;;;;;;;;;;5078563;28;20531;-68
2022/01/13 09:25:54;;;;;;;8.85;3.25;;;;;;;;;;5091100;28;20040;-67
2022/01/13 09:28:59;;;;;;;9.70;3.67;;;;;;;;;;5091020;28;20491;-67
2022/01/13 09:32:03;;;;;;;15.32;4.05;;;;;;;;;;5078469;28;20377;-68
2022/01/13 09:35:08;;;;;;;14.50;3.72;;;;;;;;;;5090947;28;20032;-69
2022/01/13 09:38:13;;;;;;;18.35;4.22;;;;;;;;;;5077942;28;20060;-70
2022/01/13 09:41:18;;;;;;;7.35;3.83;;;;;;;;;;5090915;28;20040;-68
2022/01/13 09:44:23;;;;;;;11.13;3.65;;;;;;;;;;5066636;28;20032;-67
2022/01/13 09:47:29;;;;;;;12.05;3.53;;;;;;;;;;5090757;28;20396;-68
2022/01/13 09:50:33;;;;;;;10.65;3.40;;;;;;;;;;5090837;28;20059;-67
2022/01/13 09:53:37;;;;;;;10.60;4.15;;;;;;;;;;5077948;28;20053;-67
2022/01/13 09:56:42;;;;;;;8.60;3.80;;;;;;;;;;5090421;28;20036;-67
2022/01/13 09:59:46;;;;;;;11.32;3.55;;;;;;;;;;5066738;28;20036;-67
2022/01/13 10:02:51;;;;;;;14.15;4.00;;;;;;;;;;5093532;28;20039;-69
2022/01/13 10:06:00;;;;;;;14.13;3.78;;;;;;;;;;5082233;28;20365;-66
2022/01/13 10:09:04;;;;;;;8.27;3.33;;;;;;;;;;5094310;28;20039;-67
2022/01/13 10:12:08;;;;;;;12.52;3.78;;;;;;;;;;5081798;28;20392;-67
2022/01/13 10:18:37;;;;;;;10.02;4.07;;;;;;;;;;5082054;28;20048;-70
2022/01/13 10:21:54;;;;;;;9.50;3.08;;;;;;;;;;5094481;28;20036;-68
2022/01/13 10:24:59;;;;;;;11.45;3.58;;;;;;;;;;5081574;28;20088;-70
2022/01/13 10:28:18;;;;;;;9.40;3.20;;;;;;;;;;5081463;28;20043;-69
2022/01/13 10:31:22;;;;;;;7.28;3.45;;;;;;;;;;5070074;28;20381;-70
2022/01/13 10:34:26;;;;;;;9.57;3.67;;;;;;;;;;5093845;28;20036;-71
2022/01/13 10:37:30;;;;;;;13.63;3.88;;;;;;;;;;5081466;28;20036;-71
2022/01/13 10:40:40;;;;;;;10.63;3.88;;;;;;;;;;5069766;28;20051;-70
2022/01/13 10:43:44;;;;;;;13.57;3.72;;;;;;;;;;5093970;28;20499;-68
2022/01/13 10:46:59;;;;;;;8.15;3.90;;;;;;;;;;5081334;28;20403;-68
2022/01/13 10:50:05;;;;;;;10.13;4.18;;;;;;;;;;5069582;28;20036;-68
2022/01/13 10:53:12;;;;;;;10.85;3.33;;;;;;;;;;5081086;28;20622;-68
2022/01/13 10:56:20;;;;;;;14.68;3.75;;;;;;;;;;5080906;28;20357;-68
2022/01/13 10:59:34;;;;;;;11.25;4.18;;;;;;;;;;5080831;28;20036;-68
2022/01/13 11:02:38;;;;;;;12.05;4.00;;;;;;;;;;5093329;28;20037;-70
2022/01/13 11:05:45;;;;;;;11.40;3.78;;;;;;;;;;5080963;28;20044;-67
2022/01/13 11:08:49;;;;;;;12.32;3.83;;;;;;;;;;5093252;28;20044;-67
2022/01/13 11:11:58;;;;;;;11.65;3.30;;;;;;;;;;5080498;28;20518;-68
2022/01/13 11:15:05;;;;;;;8.88;3.72;;;;;;;;;;5092985;28;20504;-70
2022/01/13 11:18:09;;;;;;;11.73;4.10;;;;;;;;;;5092443;28;20044;-68
2022/01/13 11:21:14;;;;;;;9.23;4.50;;;;;;;;;;5080791;28;20039;-68
2022/01/13 11:24:19;;;;;;;12.65;3.92;;;;;;;;;;5080525;28;20483;-68
2022/01/13 11:27:25;;;;;;;15.55;3.83;;;;;;;;;;5092973;28;20042;-68
2022/01/13 11:30:29;;;;;;;9.52;4.03;;;;;;;;;;5093061;28;20072;-69
2022/01/13 11:33:33;;;;;;;9.70;4.03;;;;;;;;;;5068272;28;20488;-68
2022/01/13 11:36:38;;;;;;;13.20;4.05;;;;;;;;;;5068826;28;20028;-69
2022/01/13 11:39:44;;;;;;;12.70;4.18;;;;;;;;;;5092903;28;20048;-69
2022/01/13 11:42:48;;;;;;;9.25;5.03;;;;;;;;;;5092771;28;20036;-69
2022/01/13 11:45:53;;;;;;;13.30;4.00;;;;;;;;;;5092772;28;20483;-71
2022/01/13 11:48:58;;;;;;;12.60;4.45;;;;;;;;;;5079462;28;20044;-71
2022/01/13 11:52:13;;;;;;;12.30;3.67;;;;;;;;;;5092096;28;20044;-71
2022/01/13 11:55:22;;;;;;;7.53;3.58;;;;;;;;;;5092416;28;20028;-69
2022/01/13 11:58:31;;;;;;;11.50;3.97;;;;;;;;;;5080444;28;20036;-69
2022/01/13 12:01:35;;;;;;;12.25;3.65;;;;;;;;;;5079637;28;20039;-70
2022/01/13 12:04:58;;;;;;;8.73;4.38;;;;;;;;;;5079419;28;20051;-70
2022/01/13 12:08:03;;;;;;;9.00;4.10;;;;;;;;;;5079846;28;20032;-71
2022/01/13 12:11:08;;;;;;;9.52;3.20;;;;;;;;;;5079252;28;20040;-72
2022/01/13 12:14:28;;;;;;;7.30;3.80;;;;;;;;;;5067879;28;20044;-71
2022/01/13 12:17:43;;;;;;;14.18;4.00;;;;;;;;;;5079226;28;20040;-71
2022/01/13 12:21:08;;;;;;;10.02;3.40;;;;;;;;;;5079057;28;20024;-71
2022/01/13 12:24:18;;;;;;;7.90;3.95;;;;;;;;;;5091527;28;20051;-71
2022/01/13 12:27:37;;;;;;;9.27;3.70;;;;;;;;;;5091949;28;20032;-72
2022/01/13 12:30:42;;;;;;;8.35;3.03;;;;;;;;;;5091737;28;20044;-71
2022/01/13 12:33:46;;;;;;;12.85;3.80;;;;;;;;;;5078914;28;20039;-69
2022/01/13 12:36:50;;;;;;;8.23;3.35;;;;;;;;;;5079102;28;20491;-70
2022/01/13 12:39:59;;;;;;;13.95;4.35;;;;;;;;;;5091346;28;20048;-70
2022/01/13 12:46:40;;;;;;;9.77;3.45;;;;;;;;;;5078873;28;20372;-70
2022/01/13 12:49:45;;;;;;;9.75;2.90;;;;;;;;;;5091430;28;20144;-71
2022/01/13 12:52:50;;;;;;;7.85;3.83;;;;;;;;;;5078907;28;20051;-71
2022/01/13 12:56:00;;;;;;;8.13;3.60;;;;;;;;;;5091291;28;20039;-71
2022/01/13 12:59:07;;;;;;;8.73;3.85;;;;;;;;;;5078430;28;20032;-70
2022/01/13 13:02:12;;;;;;;11.48;3.38;;;;;;;;;;5091173;28;20036;-72
2022/01/13 13:05:36;;;;;;;10.93;3.40;;;;;;;;;;5067016;28;20045;-71
2022/01/13 13:08:45;;;;;;;8.00;3.50;;;;;;;;;;5078509;28;20052;-71
2022/01/13 13:11:50;;;;;;;8.65;3.22;;;;;;;;;;5055183;28;20056;-71
2022/01/13 13:18:18;;;;;;;9.73;3.42;;;;;;;;;;5077339;28;20093;-73
2022/01/13 13:21:22;;;;;;;7.28;3.92;;;;;;;;;;5078063;28;20372;-70
2022/01/13 13:24:26;;;;;;;11.55;3.75;;;;;;;;;;5090378;28;20523;-72
2022/01/13 13:27:31;;;;;;;12.48;4.13;;;;;;;;;;5090472;28;20507;-69
2022/01/13 13:30:42;;;;;;;15.18;4.53;;;;;;;;;;5090507;28;20591;-69
2022/01/13 13:33:56;;;;;;;10.65;3.92;;;;;;;;;;5077958;28;20035;-71
2022/01/13 13:37:00;;;;;;;12.18;3.50;;;;;;;;;;5092988;28;20036;-72
2022/01/13 13:40:05;;;;;;;10.02;4.78;;;;;;;;;;5095447;28;20048;-70
2022/01/13 13:43:09;;;;;;;9.23;3.80;;;;;;;;;;5070743;28;20044;-71
2022/01/13 13:46:15;;;;;;;8.23;3.97;;;;;;;;;;5093470;28;20048;-69
2022/01/13 13:49:19;;;;;;;15.80;4.47;;;;;;;;;;5082054;28;20044;-72
2022/01/13 13:52:23;;;;;;;7.95;3.55;;;;;;;;;;5094064;28;20059;-70
2022/01/13 13:55:28;;;;;;;14.73;4.53;;;;;;;;;;5094446;28;20048;-69
2022/01/13 13:58:32;;;;;;;10.68;4.25;;;;;;;;;;5081901;28;20505;-69
2022/01/13 14:01:38;;;;;;;11.68;3.70;;;;;;;;;;5094671;28;20059;-70
2022/01/13 14:04:45;;;;;;;13.38;3.97;;;;;;;;;;5094228;28;20043;-69
2022/01/13 14:07:51;;;;;;;10.68;3.70;;;;;;;;;;5081786;28;20051;-70
2022/01/13 14:11:08;;;;;;;13.00;5.05;;;;;;;;;;5081609;28;20062;-68
2022/01/13 14:14:13;;;;;;;11.10;3.92;;;;;;;;;;5094250;28;20516;-68
2022/01/13 14:17:28;;;;;;;9.88;4.25;;;;;;;;;;5094256;28;20032;-69
2022/01/13 14:20:32;;;;;;;8.93;3.95;;;;;;;;;;5081854;28;20040;-69
2022/01/13 14:23:38;;;;;;;8.85;4.07;;;;;;;;;;5081646;28;20028;-69
2022/01/13 14:26:42;;;;;;;9.07;3.50;;;;;;;;;;5094325;28;20372;-69
2022/01/13 14:29:51;;;;;;;10.00;4.47;;;;;;;;;;5093904;28;20032;-69
2022/01/13 14:33:14;;;;;;;12.50;4.50;;;;;;;;;;5093955;28;20048;-69
2022/01/13 14:36:20;;;;;;;11.10;4.30;;;;;;;;;;5094055;28;20040;-68
2022/01/13 14:39:24;;;;;;;11.38;3.85;;;;;;;;;;5081138;28;20457;-70
2022/01/13 14:42:29;;;;;;;8.35;4.40;;;;;;;;;;5058109;28;20418;-70
2022/01/13 14:45:34;;;;;;;11.40;4.20;;;;;;;;;;5093788;28;20040;-68
2022/01/13 14:48:41;;;;;;;8.57;3.85;;;;;;;;;;5081029;28;20049;-69
2022/01/13 14:51:47;;;;;;;12.05;5.55;;;;;;;;;;5069341;28;20337;-69
2022/01/13 14:54:51;;;;;;;8.57;4.85;;;;;;;;;;5093665;28;20028;-69
2022/01/13 14:57:56;;;;;;;13.55;4.18;;;;;;;;;;5093556;28;20048;-70
2022/01/13 15:01:04;;;;;;;8.65;3.90;;;;;;;;;;5093427;28;20043;-69
2022/01/13 15:04:08;;;;;;;13.98;5.15;;;;;;;;;;5080605;28;20028;-69
2022/01/13 15:07:13;;;;;;;13.27;5.10;;;;;;;;;;5080814;28;20044;-70
2022/01/13 15:10:17;;;;;;;7.68;3.72;;;;;;;;;;5093465;28;20051;-69
2022/01/13 15:13:22;;;;;;;14.27;4.88;;;;;;;;;;5092999;28;20044;-69
2022/01/13 15:16:26;;;;;;;11.38;5.18;;;;;;;;;;5093014;28;20048;-69
2022/01/13 15:19:31;;;;;;;8.23;4.65;;;;;;;;;;5080535;28;20480;-68
2022/01/13 15:22:35;;;;;;;11.63;5.57;;;;;;;;;;5093138;28;20040;-68
2022/01/13 15:25:40;;;;;;;8.75;4.65;;;;;;;;;;5093030;28;20055;-68
2022/01/13 15:28:44;;;;;;;11.25;4.70;;;;;;;;;;5080241;28;20384;-69
2022/01/13 15:31:48;;;;;;;14.63;4.55;;;;;;;;;;5080114;28;20054;-69
2022/01/13 15:34:54;;;;;;;9.90;5.45;;;;;;;;;;5080255;28;20044;-68
2022/01/13 15:37:58;;;;;;;12.23;4.90;;;;;;;;;;5078992;28;20048;-68
2022/01/13 15:41:05;;;;;;;7.57;3.58;;;;;;;;;;5079526;28;20364;-71
2022/01/13 15:44:09;;;;;;;11.40;4.65;;;;;;;;;;5079366;28;20040;-68
2022/01/13 15:47:13;;;;;;;7.07;3.97;;;;;;;;;;5092176;28;20415;-68
2022/01/13 15:50:19;;;;;;;12.38;4.53;;;;;;;;;;5080093;28;20476;-68
2022/01/13 15:53:25;;;;;;;12.48;5.13;;;;;;;;;;5092260;28;20048;-69
2022/01/13 15:56:29;;;;;;;10.88;4.05;;;;;;;;;;5092330;28;20380;-69
2022/01/13 15:59:34;;;;;;;12.00;3.67;;;;;;;;;;5079142;28;20107;-68
2022/01/13 16:02:38;;;;;;;9.13;5.03;;;;;;;;;;5079137;28;20035;-68
2022/01/13 16:05:44;;;;;;;11.38;4.90;;;;;;;;;;5091982;28;20040;-68
2022/01/13 16:08:48;;;;;;;8.25;4.35;;;;;;;;;;5079452;28;20044;-69
2022/01/13 16:11:53;;;;;;;12.48;4.43;;;;;;;;;;5078910;28;20052;-69
2022/01/13 16:14:58;;;;;;;10.00;5.68;;;;;;;;;;5091674;28;20032;-69
2022/01/13 16:18:03;;;;;;;9.68;4.45;;;;;;;;;;5091250;28;20040;-68
2022/01/13 16:21:07;;;;;;;11.07;5.07;;;;;;;;;;5091770;28;20036;-70
2022/01/13 16:24:11;;;;;;;18.02;6.65;;;;;;;;;;5078920;28;20053;-69
2022/01/13 16:27:15;;;;;;;10.57;5.47;;;;;;;;;;5091471;28;20036;-72
2022/01/13 16:30:21;;;;;;;18.80;10.05;;;;;;;;;;5091624;28;20036;-69
2022/01/13 16:33:26;;;;;;;17.92;5.72;;;;;;;;;;5078731;28;20055;-69
2022/01/13 16:36:30;;;;;;;10.20;5.05;;;;;;;;;;5078685;28;20043;-71
2022/01/13 16:39:35;;;;;;;10.98;5.78;;;;;;;;;;5078699;28;20058;-70
2022/01/13 16:42:42;;;;;;;14.88;5.65;;;;;;;;;;5067433;28;20048;-69
2022/01/13 16:45:48;;;;;;;13.98;6.05;;;;;;;;;;5079007;28;20043;-71
2022/01/13 16:48:52;;;;;;;12.45;6.72;;;;;;;;;;5078638;28;20036;-69
2022/01/13 16:51:57;;;;;;;14.13;6.43;;;;;;;;;;5078594;28;20036;-68
2022/01/13 16:55:02;;;;;;;18.30;9.88;;;;;;;;;;5078533;28;20483;-67
2022/01/13 16:58:07;;;;;;;14.70;4.75;;;;;;;;;;5078330;28;20055;-68
2022/01/13 17:01:11;;;;;;;13.60;5.32;;;;;;;;;;5090993;28;20048;-69
2022/01/13 17:04:15;;;;;;;11.10;5.13;;;;;;;;;;5090997;28;20499;-69
2022/01/13 17:07:20;;;;;;;12.52;5.68;;;;;;;;;;5090585;28;20040;-72
2022/01/13 17:10:32;;;;;;;11.77;5.38;;;;;;;;;;5077670;28;20508;-69
2022/01/13 17:13:36;;;;;;;10.85;4.93;;;;;;;;;;5090593;28;20040;-68
2022/01/13 17:16:41;;;;;;;8.15;3.30;;;;;;;;;;5090711;28;20040;-69
2022/01/13 17:19:47;;;;;;;11.52;5.55;;;;;;;;;;5077970;28;20036;-68
2022/01/13 17:22:51;;;;;;;15.02;4.53;;;;;;;;;;5090493;28;20036;-68
2022/01/13 17:25:56;;;;;;;11.18;5.07;;;;;;;;;;5078287;28;20052;-71
2022/01/13 17:29:02;;;;;;;9.27;5.30;;;;;;;;;;5078064;28;20036;-72
2022/01/13 17:32:07;;;;;;;9.02;4.50;;;;;;;;;;5077861;28;20048;-71
2022/01/13 17:35:12;;;;;;;8.85;4.43;;;;;;;;;;5078121;28;20036;-70
2022/01/13 17:38:16;;;;;;;12.85;6.43;;;;;;;;;;5077671;28;20040;-70
2022/01/13 17:41:21;;;;;;;14.02;5.15;;;;;;;;;;5090304;28;20043;-68
2022/01/13 17:44:25;;;;;;;10.68;4.78;;;;;;;;;;5090134;28;20039;-69
2022/01/13 17:47:30;;;;;;;14.15;6.93;;;;;;;;;;5066345;28;20044;-68
2022/01/13 17:50:34;;;;;;;13.85;6.25;;;;;;;;;;5090438;28;20040;-70
2022/01/13 17:53:39;;;;;;;10.60;5.03;;;;;;;;;;5090003;28;20048;-70
2022/01/13 17:56:43;;;;;;;22.67;5.57;;;;;;;;;;5077467;28;20129;-69
2022/01/13 17:59:48;;;;;;;10.68;5.32;;;;;;;;;;5077375;28;20052;-69
2022/01/13 18:02:52;;;;;;;11.77;3.90;;;;;;;;;;5088720;28;20044;-69
2022/01/13 18:05:56;;;;;;;9.98;4.93;;;;;;;;;;5090422;28;20051;-70
2022/01/13 18:09:01;;;;;;;14.48;4.55;;;;;;;;;;5077819;28;20467;-69
2022/01/13 18:12:09;;;;;;;10.38;4.78;;;;;;;;;;5090036;28;20055;-73
2022/01/13 18:15:13;;;;;;;10.85;4.38;;;;;;;;;;5089600;28;20059;-72
2022/01/13 18:18:18;;;;;;;9.52;4.22;;;;;;;;;;5077655;28;20074;-70
2022/01/13 18:21:22;;;;;;;13.93;5.00;;;;;;;;;;5090267;28;20044;-71
2022/01/13 18:24:27;;;;;;;17.02;5.22;;;;;;;;;;5093588;28;20047;-71
2022/01/13 18:27:32;;;;;;;16.17;5.90;;;;;;;;;;5093687;28;20048;-71
2022/01/13 18:30:36;;;;;;;16.88;7.25;;;;;;;;;;5094082;28;20044;-71
2022/01/13 18:33:41;;;;;;;25.40;10.48;;;;;;;;;;5094260;28;20047;-71
2022/01/13 18:36:45;;;;;;;36.10;14.85;;;;;;;;;;5092765;28;20047;-71
2022/01/13 18:39:49;;;;;;;13.20;6.68;;;;;;;;;;5093296;28;20051;-71
2022/01/13 18:42:57;;;;;;;16.05;5.40;;;;;;;;;;5093505;28;20206;-72
2022/01/13 18:46:07;;;;;;;9.82;5.78;;;;;;;;;;5081011;28;20388;-71
2022/01/13 18:49:11;;;;;;;11.38;4.22;;;;;;;;;;5093381;28;20040;-72